Time;durP1;ratioP1;P1;durP2;ratioP2;P2;SDS_P1;SDS_P2;PMS_P1;PMS_P2;Temp;Humidity;BMP_temperature;BMP_pressure;BME280_temperature;BME280_humidity;BME280_pressure;Samples;Min_cycle;Max_cycle;Signal;HPM_P1;HPM_P2
2022/04/13 00:02:22;;;;;;;6.93;2.80;;;;;;;13.19;72.67;96275.78;5072670;28;20290;-56
2022/04/13 00:04:49;;;;;;;5.30;2.67;;;;;;;13.15;73.25;96273.63;5083763;28;20206;-55
2022/04/13 00:07:15;;;;;;;4.93;2.70;;;;;;;13.16;72.26;96277.94;5083550;28;20214;-55
2022/04/13 00:09:42;;;;;;;4.03;2.40;;;;;;;12.90;74.02;96284.22;5097342;28;20220;-56
2022/04/13 00:12:13;;;;;;;2.77;2.50;;;;;;;12.83;74.57;96274.44;5065176;28;20674;-57
2022/04/13 00:14:39;;;;;;;3.00;2.70;;;;;;;12.91;73.61;96280.59;5089425;28;20222;-57
2022/04/13 00:17:08;;;;;;;3.33;2.97;;;;;;;12.86;73.85;96280.25;5090550;28;20209;-57
2022/04/13 00:19:37;;;;;;;3.13;2.93;;;;;;;12.87;73.85;96279.25;5084975;28;20243;-58
2022/04/13 00:22:05;;;;;;;4.37;3.17;;;;;;;12.83;73.87;96277.91;5086353;28;20214;-58
2022/04/13 00:24:31;;;;;;;4.20;3.00;;;;;;;12.75;75.10;96277.91;5096880;28;20217;-57
2022/04/13 00:26:58;;;;;;;3.40;3.10;;;;;;;12.68;74.89;96279.56;5096540;28;20205;-57
2022/04/13 00:29:29;;;;;;;4.23;2.70;;;;;;;12.71;74.39;96279.25;5096638;28;20248;-57
2022/04/13 00:31:57;;;;;;;4.30;3.20;;;;;;;12.67;74.96;96279.75;5094547;28;20308;-58
2022/04/13 00:34:24;;;;;;;4.20;3.03;;;;;;;12.54;76.22;96288.16;5096428;28;20256;-56
2022/04/13 00:36:50;;;;;;;3.47;3.10;;;;;;;12.58;75.64;96284.19;5093024;28;20531;-58
2022/04/13 00:39:17;;;;;;;3.73;3.40;;;;;;;12.61;75.12;96285.72;5086375;28;20209;-58
2022/04/13 00:41:43;;;;;;;3.50;3.03;;;;;;;12.61;75.39;96286.53;5080544;28;20213;-59
2022/04/13 00:44:11;;;;;;;3.70;3.40;;;;;;;12.65;75.05;96290.50;5079127;28;20534;-57
2022/04/13 00:46:39;;;;;;;3.50;3.20;;;;;;;12.62;75.28;96282.88;5089073;28;20218;-57
2022/04/13 00:49:07;;;;;;;3.40;3.10;;;;;;;12.63;74.84;96289.03;5068673;28;20213;-58
2022/04/13 00:51:33;;;;;;;5.07;3.47;;;;;;;12.55;76.27;96287.19;5094970;28;20262;-58
2022/04/13 00:54:02;;;;;;;3.73;3.40;;;;;;;12.45;76.53;96287.34;5058180;28;20689;-57
2022/04/13 00:56:29;;;;;;;5.63;3.20;;;;;;;12.48;75.89;96281.72;5096830;28;20202;-58
2022/04/13 00:59:00;;;;;;;4.63;3.20;;;;;;;12.44;76.10;96284.84;5091342;28;20288;-57
2022/04/13 01:01:30;;;;;;;3.50;2.80;;;;;;;12.41;76.37;96287.81;5072789;28;20214;-57
2022/04/13 01:03:58;;;;;;;3.73;3.40;;;;;;;12.33;76.89;96285.16;5070956;28;20232;-56
2022/04/13 01:06:27;;;;;;;3.97;3.50;;;;;;;12.25;77.21;96295.75;5089559;28;20210;-58
2022/04/13 01:08:55;;;;;;;3.77;3.20;;;;;;;12.19;77.64;96291.06;5089050;28;20213;-57
2022/04/13 01:11:22;;;;;;;3.37;3.07;;;;;;;12.22;77.08;96296.09;5094751;28;20206;-57
2022/04/13 07:24:04;;;;;;;7.20;4.88;;;;;;;18.61;53.30;96448.91;5044047;28;20364;-60
2022/04/13 07:26:32;;;;;;;5.55;5.05;;;;;;;18.71;54.79;96455.56;5073955;28;20252;-61
2022/04/13 07:29:01;;;;;;;8.25;5.03;;;;;;;18.55;54.51;96455.88;5074161;28;20668;-60
2022/04/13 07:31:29;;;;;;;5.53;4.40;;;;;;;18.77;53.98;96457.47;5073679;28;20264;-60
2022/04/13 07:33:56;;;;;;;7.63;4.20;;;;;;;18.59;53.23;96450.97;5073323;28;20202;-60
2022/04/13 07:36:23;;;;;;;7.75;4.90;;;;;;;18.49;53.10;96455.81;5073528;28;20254;-60
2022/04/13 07:38:50;;;;;;;6.10;4.63;;;;;;;18.73;52.68;96452.69;5072659;28;20207;-59
2022/04/13 07:41:18;;;;;;;5.90;4.65;;;;;;;18.70;53.62;96455.78;5072906;28;20218;-60
2022/04/13 07:43:45;;;;;;;5.15;4.65;;;;;;;18.61;53.96;96455.09;5073359;28;20524;-60
2022/04/13 07:46:11;;;;;;;5.82;5.05;;;;;;;18.68;53.20;96455.97;5073672;28;20195;-61
2022/04/13 07:48:38;;;;;;;7.82;4.93;;;;;;;19.01;51.32;96460.66;5072627;28;20194;-60
2022/04/13 07:51:05;;;;;;;5.55;5.07;;;;;;;19.01;51.18;96461.47;5073056;28;20202;-60
2022/04/13 07:53:31;;;;;;;7.32;5.38;;;;;;;19.27;52.20;96463.44;5072998;28;20213;-60
2022/04/13 07:55:58;;;;;;;8.95;6.07;;;;;;;19.19;52.94;96458.25;5073106;28;20226;-59
2022/04/13 07:58:27;;;;;;;8.20;5.53;;;;;;;19.56;49.20;96464.97;5072993;28;20202;-61
2022/04/13 08:00:54;;;;;;;8.68;5.47;;;;;;;19.62;49.50;96465.00;5073228;28;20202;-60
2022/04/13 08:03:21;;;;;;;6.30;5.57;;;;;;;19.53;49.75;96471.56;5073381;28;20195;-60
2022/04/13 08:05:47;;;;;;;8.05;5.45;;;;;;;19.74;49.92;96471.41;5073479;28;20415;-60
2022/04/13 08:08:15;;;;;;;6.47;4.63;;;;;;;19.71;49.18;96463.78;5072155;28;20565;-60
2022/04/13 08:10:41;;;;;;;5.45;4.90;;;;;;;20.02;48.93;96463.19;5073781;28;20217;-60
2022/04/13 08:13:08;;;;;;;6.65;4.32;;;;;;;20.19;46.91;96466.28;5072450;28;20199;-61
2022/04/13 08:15:36;;;;;;;4.72;4.30;;;;;;;19.97;45.37;96470.22;5072599;28;20229;-60
2022/04/13 08:18:04;;;;;;;5.72;3.85;;;;;;;20.29;47.06;96478.31;5082888;28;20214;-58
2022/04/13 08:20:30;;;;;;;5.93;4.30;;;;;;;20.47;46.69;96471.47;5083998;28;20233;-60
2022/04/13 08:22:59;;;;;;;4.75;4.30;;;;;;;20.58;44.57;96471.63;5071904;28;20241;-60
2022/04/13 08:25:26;;;;;;;4.63;4.18;;;;;;;20.68;44.57;96472.06;5054914;28;20263;-59
2022/04/13 08:27:53;;;;;;;4.60;4.07;;;;;;;20.80;43.49;96474.91;5073087;28;20213;-59
2022/04/13 08:30:19;;;;;;;6.88;4.15;;;;;;;20.99;45.89;96470.50;5072198;28;20198;-60
2022/04/13 08:32:47;;;;;;;6.03;3.58;;;;;;;21.19;41.86;96472.09;5072177;28;20207;-59
2022/04/13 08:35:14;;;;;;;3.53;2.72;;;;;;;21.45;40.13;96473.84;5071930;28;20743;-60
2022/04/13 08:37:40;;;;;;;2.75;2.40;;;;;;;21.56;40.54;96470.50;5072208;28;20203;-60
2022/04/13 08:40:08;;;;;;;4.53;2.40;;;;;;;21.72;37.81;96466.44;5072146;28;20201;-60
2022/04/13 08:42:52;;;;;;;5.15;2.08;;;;;;;21.75;35.29;96471.41;5072082;28;20206;-60
2022/04/13 08:45:23;;;;;;;3.15;2.22;;;;;;;21.87;35.24;96468.84;5072849;28;20194;-60
2022/04/13 08:47:56;;;;;;;3.65;2.30;;;;;;;21.88;35.63;96478.56;5072332;28;20195;-60
2022/04/13 08:50:25;;;;;;;3.53;2.42;;;;;;;22.00;36.82;96474.19;5072764;28;20187;-60
2022/04/13 08:52:55;;;;;;;8.60;3.20;;;;;;;21.78;34.89;96468.28;5072527;28;20218;-60
2022/04/13 08:55:24;;;;;;;6.10;2.63;;;;;;;21.61;35.64;96467.97;5073856;28;20301;-58
2022/04/13 08:57:55;;;;;;;5.07;2.40;;;;;;;21.78;35.23;96470.97;5089140;28;20278;-60
2022/04/13 09:00:23;;;;;;;3.88;2.30;;;;;;;21.97;35.89;96469.22;5091185;28;20194;-60
2022/04/13 09:02:58;;;;;;;4.78;2.35;;;;;;;22.01;35.50;96467.72;5081881;28;20536;-60
2022/04/13 09:05:26;;;;;;;3.40;2.65;;;;;;;22.26;36.84;96477.47;5071490;28;20198;-61
2022/04/13 09:08:02;;;;;;;3.13;2.45;;;;;;;22.55;36.79;96475.16;5070793;28;20293;-60
2022/04/13 09:10:30;;;;;;;5.65;2.40;;;;;;;22.76;38.14;96472.91;5071298;28;20210;-60
2022/04/13 09:12:57;;;;;;;3.72;2.35;;;;;;;22.74;35.02;96480.38;5070995;28;20202;-60
2022/04/13 09:15:25;;;;;;;6.22;2.72;;;;;;;22.88;35.06;96469.47;5083920;28;20202;-59
2022/04/13 09:17:56;;;;;;;6.70;2.28;;;;;;;23.09;34.29;96474.41;5093498;28;20195;-60
2022/04/13 09:20:23;;;;;;;2.80;2.20;;;;;;;22.72;31.82;96473.56;5093847;28;20182;-61
2022/04/13 09:22:51;;;;;;;2.67;1.83;;;;;;;22.86;32.50;96466.97;5073690;28;20230;-59
2022/04/13 09:25:20;;;;;;;5.20;2.10;;;;;;;23.01;33.25;96475.53;5071192;28;20697;-58
2022/04/13 09:27:47;;;;;;;4.93;2.13;;;;;;;23.23;33.48;96473.22;5072320;28;20194;-59
2022/04/13 09:30:14;;;;;;;3.80;2.80;;;;;;;23.47;35.46;96475.00;5070967;28;20199;-59
2022/04/13 09:32:40;;;;;;;5.32;2.70;;;;;;;23.79;35.29;96468.31;5071184;28;20659;-60
2022/04/13 09:35:10;;;;;;;4.07;2.55;;;;;;;23.92;33.96;96474.56;5071315;28;20589;-61
2022/04/13 09:37:37;;;;;;;3.30;2.53;;;;;;;23.81;33.05;96472.69;5071880;28;20206;-59
2022/04/13 09:40:05;;;;;;;2.85;2.10;;;;;;;24.17;35.47;96467.16;5069354;28;20226;-60
2022/04/13 09:42:31;;;;;;;4.20;2.95;;;;;;;24.04;31.59;96470.03;5071332;28;20638;-59
2022/04/13 09:45:02;;;;;;;4.22;2.75;;;;;;;23.89;33.37;96469.63;5071169;28;20194;-60
2022/04/13 09:47:31;;;;;;;5.43;2.70;;;;;;;23.98;33.43;96466.38;5071417;28;20285;-59
2022/04/13 09:49:57;;;;;;;3.25;2.72;;;;;;;23.97;34.44;96459.34;5071275;28;20206;-61
2022/04/13 09:52:28;;;;;;;6.22;2.95;;;;;;;23.77;33.92;96456.91;5070268;28;20202;-60
2022/04/13 09:54:55;;;;;;;5.68;2.80;;;;;;;23.65;34.10;96455.25;5070198;28;20230;-60
2022/04/13 09:57:23;;;;;;;3.10;2.40;;;;;;;23.69;34.53;96454.56;5070251;28;20230;-59
2022/04/13 09:59:57;;;;;;;5.22;3.22;;;;;;;23.73;35.35;96450.34;5070031;28;20709;-59
2022/04/13 10:02:38;;;;;;;4.78;3.17;;;;;;;23.82;34.57;96450.81;5070305;28;20195;-60
2022/04/13 10:05:07;;;;;;;5.32;3.58;;;;;;;23.76;34.60;96452.59;5052732;28;20210;-59
2022/04/13 10:07:38;;;;;;;5.00;2.90;;;;;;;23.88;35.23;96454.50;5071111;28;20720;-59
2022/04/13 10:10:05;;;;;;;5.32;3.45;;;;;;;24.20;33.94;96447.75;5070594;28;20194;-59
2022/04/13 10:12:49;;;;;;;8.02;3.60;;;;;;;24.18;34.26;96445.31;5069934;28;20656;-61
2022/04/13 10:15:16;;;;;;;4.72;3.33;;;;;;;24.17;35.85;96443.66;5070362;28;20244;-59
2022/04/13 10:17:42;;;;;;;5.70;3.22;;;;;;;24.21;33.70;96441.31;5071198;28;20211;-60
2022/04/13 10:20:10;;;;;;;5.40;3.47;;;;;;;24.14;34.83;96449.53;5070524;28;20202;-60
2022/04/13 10:22:57;;;;;;;5.20;3.42;;;;;;;24.41;33.39;96436.38;5070675;28;20595;-60
2022/04/13 10:25:25;;;;;;;4.18;3.30;;;;;;;24.78;35.10;96440.50;5070278;28;20198;-59
2022/04/13 10:27:58;;;;;;;5.07;3.17;;;;;;;24.85;34.74;96429.56;5071057;28;20237;-60
2022/04/13 10:30:26;;;;;;;4.35;3.42;;;;;;;25.14;35.18;96434.00;5070236;28;20222;-61
2022/04/13 10:32:57;;;;;;;7.32;3.30;;;;;;;25.01;33.15;96425.31;5070589;28;20259;-61
2022/04/13 10:35:26;;;;;;;5.50;3.90;;;;;;;25.31;32.48;96425.09;5069838;28;20213;-61
2022/04/13 10:37:56;;;;;;;7.07;3.72;;;;;;;25.04;32.67;96420.25;5069769;28;20309;-62
2022/04/13 10:40:24;;;;;;;8.05;3.33;;;;;;;25.46;32.55;96420.00;5070483;28;20198;-60
2022/04/13 10:42:52;;;;;;;6.50;3.63;;;;;;;25.37;33.21;96416.00;5072462;28;20236;-60
2022/04/13 10:45:19;;;;;;;8.02;3.60;;;;;;;25.32;32.28;96408.63;5073956;28;20202;-61
2022/04/13 10:47:51;;;;;;;4.00;3.40;;;;;;;25.68;31.58;96404.75;5074049;28;20247;-60
2022/04/13 10:50:21;;;;;;;6.60;3.85;;;;;;;25.80;33.55;96402.78;5074581;28;20191;-59
2022/04/13 10:52:57;;;;;;;6.05;4.05;;;;;;;26.11;32.32;96401.41;5073634;28;20292;-61
2022/04/13 10:55:27;;;;;;;6.80;3.58;;;;;;;25.61;32.30;96406.78;5074995;28;20214;-59
2022/04/13 10:57:59;;;;;;;6.00;3.67;;;;;;;25.74;32.57;96396.47;5073514;28;20537;-59
2022/04/13 11:00:26;;;;;;;6.47;3.75;;;;;;;25.45;31.21;96402.94;5073817;28;20638;-58
2022/04/13 11:02:54;;;;;;;6.85;3.75;;;;;;;25.87;32.50;96406.16;5074709;28;20199;-59
2022/04/13 11:05:22;;;;;;;7.88;4.05;;;;;;;26.18;33.39;96407.53;5078600;28;20198;-58
2022/04/13 11:07:51;;;;;;;6.35;4.45;;;;;;;25.80;32.51;96402.78;5076592;28;20198;-60
2022/04/13 11:10:20;;;;;;;5.53;3.95;;;;;;;25.86;32.16;96395.56;5074816;28;20202;-58
2022/04/13 11:12:47;;;;;;;8.43;4.18;;;;;;;25.53;31.95;96405.28;5073615;28;20287;-59
2022/04/13 11:15:14;;;;;;;6.93;3.85;;;;;;;25.95;30.58;96392.22;5073765;28;20202;-59
2022/04/13 11:17:41;;;;;;;7.47;4.30;;;;;;;25.79;33.61;96398.41;5073142;28;20230;-59
2022/04/13 11:20:21;;;;;;;6.47;3.88;;;;;;;25.93;32.49;96401.66;5073550;28;20202;-59
2022/04/13 11:23:24;;;;;;;5.35;3.72;;;;;;;26.05;32.52;96394.25;5072816;28;20233;-59
2022/04/13 11:25:58;;;;;;;6.90;4.22;;;;;;;25.61;31.00;96396.75;5068744;28;20209;-58
2022/04/13 11:28:30;;;;;;;4.53;3.90;;;;;;;25.77;31.46;96394.31;5073402;28;20221;-59
2022/04/13 11:31:10;;;;;;;8.40;4.63;;;;;;;25.74;31.66;96390.22;5073846;28;20205;-59
2022/04/13 11:33:58;;;;;;;5.53;4.22;;;;;;;25.50;31.34;96389.50;5077143;28;20263;-58
2022/04/13 11:36:29;;;;;;;9.40;3.78;;;;;;;26.02;32.38;96392.03;5062515;28;20214;-59
2022/04/13 11:38:56;;;;;;;6.50;3.95;;;;;;;25.99;32.28;96382.53;5091042;28;20190;-59
2022/04/13 11:41:23;;;;;;;5.82;4.20;;;;;;;26.25;31.20;96381.06;5092780;28;20194;-59
2022/04/13 11:43:50;;;;;;;6.00;4.10;;;;;;;26.57;30.85;96386.69;5077402;28;20199;-60
2022/04/13 11:46:36;;;;;;;4.68;3.85;;;;;;;26.83;30.48;96383.28;5075083;28;20201;-59
2022/04/13 11:49:03;;;;;;;6.25;3.88;;;;;;;26.50;29.42;96384.13;5073308;28;20660;-59
2022/04/13 11:51:30;;;;;;;7.07;4.00;;;;;;;25.88;29.85;96377.16;5073462;28;20213;-59
2022/04/13 11:54:06;;;;;;;5.13;3.97;;;;;;;25.75;30.60;96381.81;5072502;28;20566;-59
2022/04/13 11:56:34;;;;;;;5.80;3.92;;;;;;;26.02;31.66;96383.91;5073054;28;20254;-59
2022/04/13 11:59:01;;;;;;;6.25;3.40;;;;;;;26.41;32.14;96380.22;5072666;28;20202;-59
2022/04/13 12:01:28;;;;;;;7.57;4.20;;;;;;;26.18;30.99;96375.00;5054917;28;20661;-59
2022/04/13 12:03:56;;;;;;;4.28;3.30;;;;;;;26.02;31.77;96376.59;5073099;28;20647;-58
2022/04/13 12:06:24;;;;;;;8.10;4.03;;;;;;;26.39;32.92;96378.84;5073074;28;20650;-59
2022/04/13 12:08:52;;;;;;;5.97;3.47;;;;;;;26.19;32.17;96366.59;5073045;28;20291;-59
2022/04/13 12:11:22;;;;;;;5.30;3.45;;;;;;;26.75;31.61;96369.31;5073117;28;20198;-60
2022/04/13 12:13:52;;;;;;;6.43;3.95;;;;;;;26.89;31.45;96374.13;5073209;28;20233;-59
2022/04/13 12:16:21;;;;;;;4.57;3.38;;;;;;;26.91;30.27;96376.59;5073136;28;20226;-59
2022/04/13 12:18:50;;;;;;;3.65;3.05;;;;;;;27.18;30.54;96372.84;5072916;28;20203;-59
2022/04/13 12:21:20;;;;;;;5.00;3.72;;;;;;;26.64;29.29;96371.06;5072514;28;20208;-59
2022/04/13 12:23:48;;;;;;;4.85;3.47;;;;;;;27.03;30.83;96374.59;5073513;28;20650;-58
2022/04/13 12:26:16;;;;;;;4.70;3.47;;;;;;;27.19;30.61;96379.13;5074328;28;20199;-59
2022/04/13 12:28:43;;;;;;;8.60;4.13;;;;;;;26.41;30.36;96363.94;5074985;28;20657;-59
2022/04/13 12:31:12;;;;;;;8.88;3.67;;;;;;;26.33;32.84;96371.69;5074061;28;20653;-58
2022/04/13 12:33:40;;;;;;;7.75;3.80;;;;;;;26.26;31.31;96361.00;5076318;28;20199;-59
2022/04/13 12:36:07;;;;;;;7.65;3.95;;;;;;;26.15;31.37;96356.47;5078043;28;20630;-58
2022/04/13 12:38:35;;;;;;;6.30;3.50;;;;;;;25.99;30.10;96362.72;5079030;28;20203;-59
2022/04/13 12:41:10;;;;;;;7.30;3.65;;;;;;;25.64;30.21;96357.53;5061746;28;20207;-59
2022/04/13 12:43:41;;;;;;;6.20;3.42;;;;;;;25.84;31.57;96357.06;5080593;28;20284;-58
2022/04/13 12:46:11;;;;;;;9.45;3.38;;;;;;;25.55;30.20;96354.41;5075695;28;20210;-59
2022/04/13 12:48:39;;;;;;;8.38;3.75;;;;;;;25.79;30.62;96360.50;5075905;28;20205;-62
2022/04/13 12:51:06;;;;;;;9.77;3.85;;;;;;;25.91;30.98;96355.81;5076422;28;20194;-58
2022/04/13 12:53:50;;;;;;;8.77;3.90;;;;;;;25.65;31.43;96351.88;5075071;28;20206;-58
2022/04/13 12:56:18;;;;;;;6.15;3.40;;;;;;;25.08;30.14;96347.53;5071703;28;20191;-58
2022/04/13 12:58:45;;;;;;;16.00;4.25;;;;;;;25.51;32.54;96347.81;5072453;28;20198;-59
2022/04/13 13:01:25;;;;;;;18.75;4.38;;;;;;;25.62;32.43;96348.81;5071822;28;20202;-58
2022/04/13 13:03:54;;;;;;;8.52;3.58;;;;;;;25.73;31.72;96339.81;5072261;28;20535;-59
2022/04/13 13:06:20;;;;;;;6.28;3.35;;;;;;;25.64;30.84;96344.81;5074773;28;20304;-58
2022/04/13 13:08:52;;;;;;;7.45;3.70;;;;;;;25.25;31.78;96343.00;5075135;28;20205;-58
2022/04/13 13:11:18;;;;;;;6.10;3.53;;;;;;;25.52;31.76;96338.66;5076300;28;20209;-58
2022/04/13 13:13:45;;;;;;;6.80;3.97;;;;;;;25.35;31.65;96337.75;5058048;28;20206;-58
2022/04/13 13:16:30;;;;;;;4.60;3.40;;;;;;;25.65;30.72;96338.31;5074983;28;20207;-58
2022/04/13 13:19:17;;;;;;;5.43;3.28;;;;;;;25.82;31.42;96327.50;5073950;28;20207;-58
2022/04/13 13:22:13;;;;;;;6.32;3.13;;;;;;;25.91;29.98;96331.44;5073189;28;20194;-59
2022/04/13 13:24:50;;;;;;;5.45;3.10;;;;;;;25.99;29.01;96324.78;5072975;28;20631;-59
2022/04/13 13:27:22;;;;;;;4.82;2.97;;;;;;;25.92;28.69;96326.84;5073314;28;20221;-58
2022/04/13 13:29:49;;;;;;;4.68;3.10;;;;;;;25.66;30.82;96312.88;5072536;28;20214;-59
2022/04/13 13:32:19;;;;;;;5.65;3.05;;;;;;;25.90;31.28;96313.53;5073673;28;20210;-58
2022/04/13 13:34:54;;;;;;;6.63;3.50;;;;;;;25.99;30.59;96311.25;5074078;28;20213;-58
2022/04/13 13:37:41;;;;;;;4.57;3.65;;;;;;;25.68;30.95;96308.03;5073900;28;20206;-59
2022/04/13 13:40:41;;;;;;;8.50;3.38;;;;;;;25.72;31.75;96306.47;5072518;28;20840;-58
2022/04/13 13:43:08;;;;;;;7.68;3.78;;;;;;;25.70;31.46;96303.22;5073109;28;20203;-59
2022/04/13 13:45:36;;;;;;;4.70;3.50;;;;;;;25.88;31.79;96302.13;5072608;28;20630;-59
2022/04/13 13:48:06;;;;;;;4.30;3.33;;;;;;;25.85;30.60;96299.94;5073109;28;20209;-59
2022/04/13 13:50:36;;;;;;;6.22;3.45;;;;;;;25.68;30.83;96297.19;5072565;28;20293;-58
2022/04/13 13:53:04;;;;;;;6.32;3.50;;;;;;;25.49;30.19;96298.50;5072316;28;20244;-59
2022/04/13 13:55:32;;;;;;;6.80;3.50;;;;;;;25.46;30.63;96296.28;5072630;28;20207;-58
2022/04/13 13:57:59;;;;;;;5.95;3.75;;;;;;;25.55;30.50;96294.00;5076212;28;20305;-59
2022/04/13 14:00:26;;;;;;;7.30;3.35;;;;;;;25.53;30.39;96291.56;5083260;28;20205;-58
2022/04/13 14:02:53;;;;;;;3.90;3.08;;;;;;;25.54;30.84;96295.88;5080816;28;20207;-58
2022/04/13 14:05:23;;;;;;;4.53;3.42;;;;;;;25.56;31.34;96291.06;5079721;28;20210;-58
2022/04/13 14:07:52;;;;;;;6.10;3.85;;;;;;;25.41;31.81;96288.06;5073536;28;20194;-59
2022/04/13 14:10:19;;;;;;;5.03;3.38;;;;;;;25.41;30.81;96288.06;5070565;28;20272;-58
2022/04/13 14:12:46;;;;;;;7.75;4.00;;;;;;;25.05;32.50;96293.88;5070637;28;20209;-59
2022/04/13 14:15:13;;;;;;;7.35;3.88;;;;;;;24.82;32.55;96288.53;5070766;28;20217;-58
2022/04/13 14:17:42;;;;;;;5.38;3.70;;;;;;;24.94;32.78;96283.97;5070220;28;20235;-57
2022/04/13 14:20:10;;;;;;;4.05;3.13;;;;;;;24.95;32.75;96277.47;5072186;28;20218;-58
2022/04/13 14:22:37;;;;;;;7.68;3.60;;;;;;;24.82;32.55;96285.84;5070793;28;20233;-59
2022/04/13 14:25:06;;;;;;;8.20;3.97;;;;;;;24.85;32.98;96283.50;5071406;28;20199;-58
2022/04/13 14:27:34;;;;;;;5.55;3.90;;;;;;;24.74;32.60;96281.63;5071054;28;20246;-58
2022/04/13 14:30:01;;;;;;;7.57;4.05;;;;;;;24.47;32.75;96275.97;5072095;28;20229;-58
2022/04/13 14:32:29;;;;;;;7.13;4.35;;;;;;;24.40;34.32;96291.50;5070881;28;20218;-58
2022/04/13 14:34:57;;;;;;;7.93;4.07;;;;;;;24.30;33.19;96280.47;5070847;28;20248;-59
2022/04/13 14:37:26;;;;;;;8.18;4.10;;;;;;;24.37;33.00;96281.16;5070179;28;20218;-58
2022/04/13 14:39:52;;;;;;;7.43;4.13;;;;;;;24.25;33.48;96280.34;5070937;28;20218;-58
2022/04/13 14:42:22;;;;;;;5.13;3.90;;;;;;;24.39;33.86;96281.72;5068987;28;20195;-58
2022/04/13 14:44:49;;;;;;;6.28;3.85;;;;;;;24.36;34.61;96284.09;5069882;28;20217;-58
2022/04/13 14:47:16;;;;;;;5.78;4.03;;;;;;;24.21;33.81;96279.19;5069608;28;20195;-59
2022/04/13 14:49:42;;;;;;;6.53;4.20;;;;;;;23.93;33.15;96279.88;5070015;28;20202;-58
2022/04/13 14:52:11;;;;;;;6.75;4.10;;;;;;;24.11;33.82;96276.22;5070066;28;20194;-57
2022/04/13 14:54:38;;;;;;;8.48;3.88;;;;;;;24.19;34.47;96278.59;5070323;28;20202;-59
2022/04/13 14:57:05;;;;;;;4.78;4.05;;;;;;;24.16;34.42;96282.59;5069377;28;20666;-58
2022/04/13 14:59:34;;;;;;;6.32;3.85;;;;;;;24.06;34.83;96273.41;5070558;28;20221;-60
2022/04/13 15:02:00;;;;;;;5.50;3.60;;;;;;;24.10;34.80;96272.69;5070014;28;20217;-58
2022/04/13 15:04:27;;;;;;;5.18;3.97;;;;;;;23.88;35.41;96273.56;5070190;28;20293;-59
2022/04/13 15:06:53;;;;;;;5.75;4.20;;;;;;;23.91;34.25;96271.19;5069944;28;20305;-58
2022/04/13 15:09:20;;;;;;;6.80;4.10;;;;;;;23.91;34.86;96273.06;5069762;28;20520;-58
2022/04/13 15:11:46;;;;;;;6.70;4.00;;;;;;;23.89;34.17;96262.50;5069374;28;20209;-58
2022/04/13 15:14:13;;;;;;;6.20;4.15;;;;;;;23.94;34.60;96264.50;5070365;28;20218;-59
2022/04/13 15:16:41;;;;;;;5.80;3.60;;;;;;;23.97;34.22;96264.84;5070028;28;20214;-58
2022/04/13 15:19:09;;;;;;;5.53;3.80;;;;;;;23.92;34.39;96277.41;5070211;28;20689;-59
2022/04/13 15:21:38;;;;;;;7.10;3.72;;;;;;;23.88;33.76;96273.56;5070149;28;20199;-58
2022/04/13 15:24:06;;;;;;;5.20;3.78;;;;;;;23.93;33.32;96268.25;5069053;28;20240;-58
2022/04/13 15:26:34;;;;;;;4.88;3.17;;;;;;;24.02;33.08;96261.44;5069498;28;20207;-60
2022/04/13 15:29:01;;;;;;;6.03;3.53;;;;;;;24.08;33.23;96269.41;5072322;28;20221;-58
2022/04/13 15:31:28;;;;;;;4.28;3.00;;;;;;;24.05;33.99;96271.78;5073706;28;20202;-60
2022/04/13 15:33:56;;;;;;;5.63;3.58;;;;;;;24.08;35.56;96266.72;5073559;28;20213;-59
2022/04/13 15:36:22;;;;;;;4.57;3.35;;;;;;;24.06;34.80;96273.41;5074725;28;20198;-59
2022/04/13 15:38:48;;;;;;;8.02;6.90;;;;;;;24.14;34.45;96275.78;5080146;28;20241;-58
2022/04/13 15:41:16;;;;;;;4.80;3.75;;;;;;;24.16;33.78;96273.69;5080698;28;20202;-58
2022/04/13 15:43:46;;;;;;;5.28;3.20;;;;;;;23.93;32.97;96274.47;5081887;28;20244;-59
2022/04/13 15:46:14;;;;;;;4.05;2.97;;;;;;;23.98;32.92;96276.47;5079958;28;20203;-59
2022/04/13 15:48:42;;;;;;;5.68;3.13;;;;;;;24.04;32.91;96275.53;5076107;28;20199;-59
2022/04/13 15:51:11;;;;;;;4.72;2.88;;;;;;;24.08;33.85;96279.41;5073426;28;20194;-59
2022/04/13 15:53:38;;;;;;;3.38;3.08;;;;;;;24.15;33.50;96264.75;5073172;28;20294;-58
2022/04/13 15:56:05;;;;;;;4.43;3.75;;;;;;;24.16;33.77;96281.78;5074088;28;20237;-59
2022/04/13 15:58:32;;;;;;;5.05;3.15;;;;;;;24.08;34.18;96277.53;5073053;28;20244;-58
2022/04/13 16:00:59;;;;;;;3.88;3.40;;;;;;;24.06;33.61;96279.63;5055434;28;20198;-58
2022/04/13 16:03:25;;;;;;;4.72;3.00;;;;;;;24.04;33.80;96283.63;5073152;28;20206;-59
2022/04/13 16:05:52;;;;;;;4.20;3.08;;;;;;;23.97;33.76;96285.63;5073823;28;20294;-59
2022/04/13 16:08:20;;;;;;;6.88;3.33;;;;;;;23.96;33.80;96292.06;5073347;28;20190;-58
2022/04/13 16:10:46;;;;;;;3.00;2.63;;;;;;;23.95;33.27;96282.34;5073286;28;20211;-59
2022/04/13 16:13:14;;;;;;;5.05;2.50;;;;;;;23.92;35.21;96291.72;5090079;28;20213;-58
2022/04/13 16:15:43;;;;;;;4.53;3.00;;;;;;;23.73;33.64;96296.44;5096352;28;20186;-59
2022/04/13 16:18:09;;;;;;;3.35;2.80;;;;;;;23.81;33.67;96299.84;5094575;28;20228;-59
2022/04/13 16:20:37;;;;;;;7.30;2.70;;;;;;;23.74;31.13;96297.22;5080576;28;20202;-58
2022/04/13 16:23:07;;;;;;;2.78;1.85;;;;;;;23.54;29.63;96300.28;5060876;28;20264;-59
2022/04/13 16:25:35;;;;;;;2.67;1.90;;;;;;;23.58;29.65;96296.06;5078206;28;20256;-58
2022/04/13 16:28:04;;;;;;;4.93;2.30;;;;;;;23.55;29.30;96293.84;5074178;28;20527;-58
2022/04/13 16:30:31;;;;;;;6.90;1.95;;;;;;;23.53;29.71;96295.94;5072411;28;20209;-58
2022/04/13 16:32:59;;;;;;;6.07;2.20;;;;;;;23.48;29.32;96306.63;5072127;28;20202;-57
2022/04/13 16:35:27;;;;;;;3.05;1.85;;;;;;;23.41;29.85;96305.03;5072881;28;20209;-58
2022/04/13 16:37:59;;;;;;;4.55;1.90;;;;;;;23.39;29.25;96304.44;5072850;28;20245;-58
2022/04/13 16:40:26;;;;;;;3.47;2.05;;;;;;;23.31;30.14;96303.72;5072285;28;20209;-59
2022/04/13 16:42:56;;;;;;;4.68;1.98;;;;;;;23.37;29.84;96301.16;5071695;28;20258;-59
2022/04/13 16:45:31;;;;;;;4.15;1.73;;;;;;;23.37;31.82;96301.97;5070724;28;20202;-57
2022/04/13 16:47:57;;;;;;;4.82;1.90;;;;;;;23.27;30.54;96304.41;5073089;28;20190;-55
2022/04/13 16:50:24;;;;;;;4.28;2.00;;;;;;;23.24;31.01;96308.38;5072440;28;20207;-57
2022/04/13 16:52:50;;;;;;;3.45;1.85;;;;;;;23.26;31.13;96309.00;5072990;28;20206;-58
2022/04/13 16:55:17;;;;;;;3.97;1.90;;;;;;;23.28;31.33;96306.03;5072792;28;20194;-58
2022/04/13 16:57:47;;;;;;;7.00;2.35;;;;;;;23.20;31.67;96306.41;5071824;28;20321;-57
2022/04/13 17:00:16;;;;;;;7.15;2.70;;;;;;;23.13;31.94;96306.47;5072481;28;20195;-58
2022/04/13 17:02:43;;;;;;;4.15;2.30;;;;;;;23.10;32.45;96311.50;5072783;28;20206;-57
2022/04/13 17:05:10;;;;;;;6.18;2.75;;;;;;;23.05;32.68;96314.06;5072843;28;20297;-57
2022/04/13 17:07:38;;;;;;;2.30;1.70;;;;;;;23.00;33.61;96312.06;5071109;28;20198;-57
2022/04/13 17:10:06;;;;;;;3.30;2.33;;;;;;;22.94;34.77;96317.53;5069688;28;20202;-57
2022/04/13 17:12:35;;;;;;;4.10;2.17;;;;;;;22.86;35.46;96320.53;5072204;28;20194;-57
2022/04/13 17:15:01;;;;;;;2.00;1.70;;;;;;;22.74;36.70;96324.00;5071668;28;20221;-57
2022/04/13 17:17:32;;;;;;;2.00;1.55;;;;;;;22.64;37.19;96323.69;5070742;28;20198;-57
2022/04/13 17:19:59;;;;;;;3.58;1.77;;;;;;;22.58;36.94;96330.00;5072487;28;20261;-58
2022/04/13 17:22:27;;;;;;;4.75;1.98;;;;;;;22.48;36.97;96321.63;5081680;28;20206;-58
2022/04/13 17:24:55;;;;;;;3.25;2.00;;;;;;;22.26;38.83;96325.78;5094178;28;20201;-57
2022/04/13 17:27:21;;;;;;;4.30;1.65;;;;;;;22.04;39.08;96328.09;5090770;28;20202;-57
2022/04/13 17:29:48;;;;;;;2.28;1.63;;;;;;;21.82;39.68;96333.00;5072247;28;20198;-58
2022/04/13 17:32:14;;;;;;;5.55;2.28;;;;;;;21.59;41.13;96340.88;5071970;28;20202;-57
2022/04/13 17:34:42;;;;;;;4.40;1.80;;;;;;;21.38;41.36;96343.94;5071589;28;20207;-58
2022/04/13 17:37:08;;;;;;;3.08;1.70;;;;;;;21.17;41.84;96347.81;5071090;28;20540;-57
2022/04/13 17:39:39;;;;;;;3.13;1.98;;;;;;;20.97;42.04;96348.94;5070619;28;20689;-57
2022/04/13 17:42:08;;;;;;;4.88;3.83;;;;;;;20.84;42.17;96358.69;5070843;28;20577;-56
2022/04/13 17:44:34;;;;;;;2.88;2.65;;;;;;;20.67;43.09;96356.69;5071497;28;20324;-56
2022/04/13 17:47:01;;;;;;;5.18;2.20;;;;;;;20.47;44.38;96362.16;5070125;28;20543;-59
2022/04/13 17:49:27;;;;;;;4.03;1.95;;;;;;;20.20;45.35;96360.53;5071339;28;20202;-59
2022/04/13 17:51:55;;;;;;;4.15;2.30;;;;;;;20.13;44.20;96362.41;5071293;28;20214;-60
2022/04/13 17:54:22;;;;;;;4.22;2.78;;;;;;;20.22;41.71;96359.28;5070990;28;20198;-58